EJU96ND EDDB-LIRF
Flight info
| Callsign | EJU96ND |
|---|---|
| Flight time | 1h 33m |
| Altitude | 38000 |
| Route | LUROS4N LUROS Y211 BEBKU Z36 MAREM DCT YUJKI DCT PEMEL DCT RUDAP DCT SIMBA/N0436F370 DCT OBEDI DCT CHI DCT EKTUK DCT GAVRA DCT RITEB |
| Aircraft | A319/M-SDE3FGHIRWY/LB1 |
Departure
| Time | 2026-05-01 11:16 |
|---|---|
| Airport | Berlin Brandenburg Airport (EDDB) |
Arrival
| Time | 2026-05-01 12:50 |
|---|---|
| Airport | Rome–Fiumicino Leonardo da Vinci International Airport (LIRF) |
| Time | Latitude | Longitude | Altitude | Speed | Heading |
|---|---|---|---|---|---|
| 2026-05-01 10:57 | 52.36017 | 13.50873 | 155 ft | 0 kts | 339° |
| 2026-05-01 11:08 | 52.35999 | 13.50884 | 155 ft | 3 kts | 339° |
| 2026-05-01 11:09 | 52.35982 | 13.50895 | 155 ft | 3 kts | 339° |
| 2026-05-01 11:09 | 52.35964 | 13.50905 | 155 ft | 3 kts | 4° |
| 2026-05-01 11:09 | 52.35945 | 13.50895 | 155 ft | 3 kts | 50° |
| 2026-05-01 11:10 | 52.35939 | 13.50882 | 155 ft | 0 kts | 73° |
| 2026-05-01 11:12 | 52.35940 | 13.50887 | 155 ft | 2 kts | 73° |
| 2026-05-01 11:12 | 52.35946 | 13.50920 | 155 ft | 4 kts | 73° |
| 2026-05-01 11:12 | 52.35957 | 13.50978 | 157 ft | 7 kts | 73° |
| 2026-05-01 11:13 | 52.35979 | 13.51087 | 155 ft | 13 kts | 68° |
| 2026-05-01 11:13 | 52.36019 | 13.51249 | 155 ft | 16 kts | 69° |
| 2026-05-01 11:13 | 52.36060 | 13.51424 | 155 ft | 17 kts | 68° |
| 2026-05-01 11:13 | 52.36104 | 13.51609 | 155 ft | 17 kts | 68° |
| 2026-05-01 11:14 | 52.36130 | 13.51799 | 155 ft | 17 kts | 105° |
| 2026-05-01 11:14 | 52.36097 | 13.51987 | 152 ft | 18 kts | 71° |
| 2026-05-01 11:14 | 52.36059 | 13.52159 | 151 ft | 18 kts | 155° |
| 2026-05-01 11:14 | 52.35950 | 13.52216 | 155 ft | 16 kts | 161° |
| 2026-05-01 11:15 | 52.35853 | 13.52253 | 158 ft | 13 kts | 189° |
| 2026-05-01 11:15 | 52.35801 | 13.52144 | 158 ft | 13 kts | 247° |
| 2026-05-01 11:15 | 52.35752 | 13.51941 | 160 ft | 43 kts | 249° |
| 2026-05-01 11:15 | 52.35550 | 13.51081 | 159 ft | 115 kts | 249° |
| 2026-05-01 11:16 | 52.35187 | 13.49556 | 163 ft | 169 kts | 248° |
| 2026-05-01 11:16 | 52.34742 | 13.47738 | 720 ft | 174 kts | 250° |
| 2026-05-01 11:16 | 52.34218 | 13.45948 | 1402 ft | 176 kts | 240° |
| 2026-05-01 11:16 | 52.33499 | 13.44185 | 1856 ft | 199 kts | 236° |
| 2026-05-01 11:17 | 52.32586 | 13.42276 | 2369 ft | 225 kts | 231° |
| 2026-05-01 11:17 | 52.31524 | 13.40305 | 3248 ft | 234 kts | 229° |
| 2026-05-01 11:17 | 52.30428 | 13.38310 | 4212 ft | 238 kts | 229° |
| 2026-05-01 11:17 | 52.29301 | 13.36285 | 5184 ft | 243 kts | 227° |
| 2026-05-01 11:18 | 52.28149 | 13.34210 | 6077 ft | 250 kts | 228° |
| 2026-05-01 11:18 | 52.26965 | 13.32072 | 6845 ft | 262 kts | 224° |
| 2026-05-01 11:18 | 52.25370 | 13.30455 | 7300 ft | 281 kts | 194° |
| 2026-05-01 11:18 | 52.23420 | 13.30323 | 8006 ft | 284 kts | 162° |
| 2026-05-01 11:19 | 52.21683 | 13.31739 | 8887 ft | 280 kts | 134° |
| 2026-05-01 11:19 | 52.20516 | 13.34242 | 9799 ft | 278 kts | 116° |
| 2026-05-01 11:19 | 52.19523 | 13.36970 | 10662 ft | 284 kts | 116° |
| 2026-05-01 11:19 | 52.18484 | 13.39866 | 11030 ft | 307 kts | 116° |
| 2026-05-01 11:20 | 52.17364 | 13.42991 | 11306 ft | 331 kts | 116° |
| 2026-05-01 11:20 | 52.16171 | 13.46301 | 11795 ft | 344 kts | 116° |
| 2026-05-01 11:20 | 52.14943 | 13.49677 | 12545 ft | 349 kts | 116° |
| 2026-05-01 11:20 | 52.13592 | 13.52996 | 13307 ft | 357 kts | 126° |
| 2026-05-01 11:21 | 52.11647 | 13.55607 | 14063 ft | 371 kts | 146° |
| 2026-05-01 11:21 | 52.09244 | 13.57127 | 14735 ft | 380 kts | 158° |
| 2026-05-01 11:21 | 52.06695 | 13.58374 | 15390 ft | 384 kts | 159° |
| 2026-05-01 11:21 | 52.04110 | 13.59594 | 16043 ft | 389 kts | 159° |
| 2026-05-01 11:22 | 52.01494 | 13.60813 | 16684 ft | 393 kts | 159° |
| 2026-05-01 11:22 | 51.98853 | 13.62042 | 17318 ft | 397 kts | 159° |
| 2026-05-01 11:22 | 51.96180 | 13.63289 | 17959 ft | 402 kts | 159° |
| 2026-05-01 11:22 | 51.93480 | 13.64557 | 18604 ft | 406 kts | 159° |
| 2026-05-01 11:23 | 51.90755 | 13.65846 | 19165 ft | 410 kts | 159° |
| 2026-05-01 11:23 | 51.88007 | 13.67158 | 19719 ft | 414 kts | 159° |
| 2026-05-01 11:23 | 51.85232 | 13.68484 | 20266 ft | 417 kts | 159° |
| 2026-05-01 11:23 | 51.82431 | 13.69817 | 20813 ft | 421 kts | 159° |
| 2026-05-01 11:24 | 51.79602 | 13.71159 | 21344 ft | 425 kts | 159° |
| 2026-05-01 11:24 | 51.76757 | 13.72508 | 21857 ft | 428 kts | 159° |
| 2026-05-01 11:24 | 51.70987 | 13.75237 | 22855 ft | 435 kts | 159° |
| 2026-05-01 11:25 | 51.68065 | 13.76610 | 23331 ft | 439 kts | 159° |
| 2026-05-01 11:25 | 51.62155 | 13.79379 | 24217 ft | 446 kts | 159° |
| 2026-05-01 11:25 | 51.59160 | 13.80776 | 24615 ft | 449 kts | 159° |
| 2026-05-01 11:26 | 51.56155 | 13.82179 | 25013 ft | 451 kts | 159° |
| 2026-05-01 11:26 | 51.50085 | 13.85006 | 25804 ft | 457 kts | 159° |
| 2026-05-01 11:26 | 51.46938 | 13.86023 | 26183 ft | 465 kts | 169° |
| 2026-05-01 11:27 | 51.43676 | 13.86212 | 26568 ft | 474 kts | 179° |
| 2026-05-01 11:27 | 51.40384 | 13.85540 | 26947 ft | 480 kts | 187° |
| 2026-05-01 11:27 | 51.37090 | 13.84570 | 27315 ft | 483 kts | 187° |
| 2026-05-01 11:27 | 51.33814 | 13.83616 | 27681 ft | 485 kts | 187° |
| 2026-05-01 11:28 | 51.30484 | 13.82654 | 28041 ft | 488 kts | 187° |
| 2026-05-01 11:28 | 51.27089 | 13.81679 | 28397 ft | 490 kts | 187° |
| 2026-05-01 11:28 | 51.23767 | 13.80726 | 28737 ft | 493 kts | 187° |
| 2026-05-01 11:29 | 51.16987 | 13.78784 | 29403 ft | 497 kts | 187° |
| 2026-05-01 11:29 | 51.13572 | 13.77809 | 29726 ft | 500 kts | 187° |
| 2026-05-01 11:29 | 51.06712 | 13.75848 | 30549 ft | 500 kts | 187° |
| 2026-05-01 11:30 | 51.03291 | 13.74870 | 30947 ft | 499 kts | 187° |
| 2026-05-01 11:30 | 50.99879 | 13.73899 | 31353 ft | 498 kts | 187° |
| 2026-05-01 11:30 | 50.96472 | 13.72930 | 31771 ft | 497 kts | 187° |
| 2026-05-01 11:30 | 50.93075 | 13.71966 | 32193 ft | 495 kts | 187° |
| 2026-05-01 11:31 | 50.89686 | 13.70986 | 32600 ft | 495 kts | 189° |
| 2026-05-01 11:31 | 50.86351 | 13.69582 | 33006 ft | 496 kts | 193° |
| 2026-05-01 11:31 | 50.83033 | 13.68082 | 33413 ft | 495 kts | 193° |
| 2026-05-01 11:31 | 50.79725 | 13.66580 | 33842 ft | 494 kts | 193° |
| 2026-05-01 11:32 | 50.76424 | 13.65083 | 34261 ft | 493 kts | 193° |
| 2026-05-01 11:32 | 50.73125 | 13.63593 | 34623 ft | 492 kts | 193° |
| 2026-05-01 11:32 | 50.69799 | 13.62428 | 34969 ft | 488 kts | 186° |
| 2026-05-01 11:32 | 50.66446 | 13.61578 | 35317 ft | 488 kts | 186° |
| 2026-05-01 11:33 | 50.63099 | 13.60731 | 35666 ft | 487 kts | 186° |
| 2026-05-01 11:33 | 50.59749 | 13.59885 | 35989 ft | 487 kts | 186° |
| 2026-05-01 11:33 | 50.56406 | 13.59046 | 36303 ft | 486 kts | 186° |
| 2026-05-01 11:33 | 50.53069 | 13.58213 | 36606 ft | 486 kts | 186° |
| 2026-05-01 11:34 | 50.49732 | 13.57375 | 36906 ft | 485 kts | 187° |
| 2026-05-01 11:34 | 50.46400 | 13.56533 | 37200 ft | 485 kts | 187° |
| 2026-05-01 11:34 | 50.43073 | 13.55688 | 37483 ft | 484 kts | 187° |
| 2026-05-01 11:34 | 50.39741 | 13.54849 | 37763 ft | 484 kts | 187° |
| 2026-05-01 11:35 | 50.36416 | 13.54020 | 38041 ft | 484 kts | 187° |
| 2026-05-01 11:35 | 50.33091 | 13.53193 | 38307 ft | 483 kts | 187° |
| 2026-05-01 11:35 | 50.29769 | 13.52369 | 38409 ft | 484 kts | 187° |
| 2026-05-01 11:36 | 50.23115 | 13.50714 | 38416 ft | 483 kts | 187° |
| 2026-05-01 11:36 | 50.16512 | 13.49068 | 38419 ft | 483 kts | 187° |
| 2026-05-01 11:37 | 50.09875 | 13.47419 | 38421 ft | 483 kts | 187° |
| 2026-05-01 11:37 | 50.03243 | 13.45778 | 38419 ft | 483 kts | 187° |
| 2026-05-01 11:38 | 49.96603 | 13.44140 | 38428 ft | 483 kts | 187° |
| 2026-05-01 11:38 | 49.89963 | 13.42519 | 38428 ft | 483 kts | 187° |
| 2026-05-01 11:39 | 49.84444 | 13.41165 | 38435 ft | 483 kts | 187° |
| 2026-05-01 11:39 | 49.77807 | 13.39537 | 38434 ft | 483 kts | 187° |
| 2026-05-01 11:40 | 49.71169 | 13.37907 | 38442 ft | 483 kts | 187° |
| 2026-05-01 11:40 | 49.64530 | 13.36280 | 38439 ft | 483 kts | 187° |
| 2026-05-01 11:41 | 49.57888 | 13.34683 | 38447 ft | 483 kts | 187° |
| 2026-05-01 11:41 | 49.51250 | 13.33094 | 38439 ft | 483 kts | 187° |
| 2026-05-01 11:42 | 49.44610 | 13.31493 | 38436 ft | 482 kts | 187° |
| 2026-05-01 11:42 | 49.37980 | 13.29893 | 38428 ft | 482 kts | 187° |
| 2026-05-01 11:43 | 49.31345 | 13.28280 | 38425 ft | 482 kts | 187° |
| 2026-05-01 11:43 | 49.24764 | 13.26710 | 38422 ft | 482 kts | 187° |
| 2026-05-01 11:44 | 49.14832 | 13.24261 | 38424 ft | 482 kts | 188° |
| 2026-05-01 11:44 | 49.08218 | 13.22563 | 38425 ft | 482 kts | 188° |
| 2026-05-01 11:45 | 49.01604 | 13.20891 | 38426 ft | 481 kts | 187° |
| 2026-05-01 11:45 | 48.94991 | 13.19249 | 38422 ft | 481 kts | 187° |
| 2026-05-01 11:46 | 48.88382 | 13.17614 | 38422 ft | 481 kts | 187° |
| 2026-05-01 11:46 | 48.81771 | 13.15976 | 38423 ft | 481 kts | 187° |
| 2026-05-01 11:47 | 48.75159 | 13.14337 | 38422 ft | 481 kts | 187° |
| 2026-05-01 11:47 | 48.68542 | 13.12700 | 38425 ft | 481 kts | 187° |
| 2026-05-01 11:48 | 48.61931 | 13.11067 | 38428 ft | 481 kts | 187° |
| 2026-05-01 11:48 | 48.55377 | 13.09456 | 38374 ft | 478 kts | 187° |
| 2026-05-01 11:49 | 48.48781 | 13.07838 | 38402 ft | 476 kts | 187° |
| 2026-05-01 11:49 | 48.42287 | 13.06256 | 38411 ft | 476 kts | 187° |
| 2026-05-01 11:50 | 48.35743 | 13.04675 | 38405 ft | 475 kts | 187° |
| 2026-05-01 11:50 | 48.29212 | 13.03090 | 38406 ft | 475 kts | 187° |
| 2026-05-01 11:51 | 48.22662 | 13.02268 | 38397 ft | 471 kts | 173° |
| 2026-05-01 11:51 | 48.16269 | 13.03986 | 38394 ft | 466 kts | 163° |
| 2026-05-01 11:52 | 48.09949 | 13.06224 | 38386 ft | 467 kts | 163° |
| 2026-05-01 11:52 | 48.03612 | 13.08435 | 38379 ft | 468 kts | 163° |
| 2026-05-01 11:53 | 47.97271 | 13.10646 | 38375 ft | 468 kts | 163° |
| 2026-05-01 11:53 | 47.90934 | 13.12868 | 38371 ft | 468 kts | 163° |
| 2026-05-01 11:54 | 47.84623 | 13.15067 | 38371 ft | 468 kts | 163° |
| 2026-05-01 11:54 | 47.78275 | 13.17283 | 38372 ft | 469 kts | 163° |
| 2026-05-01 11:55 | 47.71929 | 13.19495 | 38376 ft | 469 kts | 163° |
| 2026-05-01 11:55 | 47.65570 | 13.21706 | 38376 ft | 469 kts | 163° |
| 2026-05-01 11:56 | 47.59208 | 13.23901 | 38363 ft | 469 kts | 163° |
| 2026-05-01 11:56 | 47.52840 | 13.26088 | 38370 ft | 470 kts | 163° |
| 2026-05-01 11:57 | 47.46458 | 13.28291 | 38359 ft | 470 kts | 163° |
| 2026-05-01 11:57 | 47.40091 | 13.30476 | 38357 ft | 470 kts | 163° |
| 2026-05-01 11:58 | 47.33588 | 13.31801 | 38356 ft | 476 kts | 178° |
| 2026-05-01 11:58 | 47.27038 | 13.30192 | 38349 ft | 482 kts | 197° |
| 2026-05-01 11:59 | 47.23852 | 13.28627 | 38343 ft | 482 kts | 197° |
| 2026-05-01 11:59 | 47.17475 | 13.25547 | 38334 ft | 483 kts | 197° |
| 2026-05-01 12:00 | 47.07926 | 13.20975 | 38326 ft | 483 kts | 197° |
| 2026-05-01 12:01 | 46.98326 | 13.16379 | 38319 ft | 484 kts | 197° |
| 2026-05-01 12:01 | 46.91920 | 13.13313 | 38322 ft | 485 kts | 197° |
| 2026-05-01 12:02 | 46.85504 | 13.10247 | 38312 ft | 485 kts | 197° |
| 2026-05-01 12:02 | 46.79083 | 13.07197 | 38318 ft | 485 kts | 196° |
| 2026-05-01 12:03 | 46.72660 | 13.04152 | 38322 ft | 486 kts | 197° |
| 2026-05-01 12:03 | 46.66269 | 13.01122 | 38323 ft | 486 kts | 197° |
| 2026-05-01 12:04 | 46.59837 | 12.98074 | 38328 ft | 486 kts | 196° |
| 2026-05-01 12:04 | 46.53399 | 12.95037 | 38336 ft | 486 kts | 196° |
| 2026-05-01 12:05 | 46.46943 | 12.92021 | 38334 ft | 486 kts | 196° |
| 2026-05-01 12:05 | 46.37269 | 12.87487 | 38343 ft | 487 kts | 196° |
| 2026-05-01 12:06 | 46.30818 | 12.84473 | 38345 ft | 487 kts | 196° |
| 2026-05-01 12:06 | 46.24396 | 12.81495 | 38347 ft | 488 kts | 196° |
| 2026-05-01 12:07 | 46.17916 | 12.78483 | 38349 ft | 489 kts | 197° |
| 2026-05-01 12:07 | 46.11432 | 12.75479 | 38353 ft | 490 kts | 197° |
| 2026-05-01 12:08 | 46.04943 | 12.72479 | 38355 ft | 490 kts | 197° |
| 2026-05-01 12:08 | 45.98450 | 12.69489 | 38357 ft | 490 kts | 197° |
| 2026-05-01 12:09 | 45.91956 | 12.66505 | 38358 ft | 490 kts | 197° |
| 2026-05-01 12:09 | 45.85453 | 12.63519 | 38363 ft | 490 kts | 197° |
| 2026-05-01 12:10 | 45.75706 | 12.59055 | 38375 ft | 490 kts | 197° |
| 2026-05-01 12:11 | 45.65948 | 12.54612 | 38386 ft | 490 kts | 197° |
| 2026-05-01 12:11 | 45.59444 | 12.51663 | 38388 ft | 490 kts | 197° |
| 2026-05-01 12:12 | 45.52936 | 12.48712 | 38386 ft | 491 kts | 197° |
| 2026-05-01 12:12 | 45.46422 | 12.45769 | 38393 ft | 491 kts | 197° |
| 2026-05-01 12:13 | 45.39912 | 12.42836 | 38393 ft | 491 kts | 197° |
| 2026-05-01 12:13 | 45.33399 | 12.39902 | 38389 ft | 491 kts | 197° |
| 2026-05-01 12:14 | 45.26936 | 12.36999 | 38390 ft | 491 kts | 197° |
| 2026-05-01 12:14 | 45.20425 | 12.34081 | 38393 ft | 490 kts | 197° |
| 2026-05-01 12:15 | 45.13914 | 12.31178 | 38394 ft | 490 kts | 197° |
| 2026-05-01 12:15 | 45.07404 | 12.28287 | 38395 ft | 490 kts | 197° |
| 2026-05-01 12:16 | 45.00836 | 12.25679 | 38398 ft | 490 kts | 194° |
| 2026-05-01 12:16 | 44.94203 | 12.23403 | 38392 ft | 490 kts | 193° |
| 2026-05-01 12:17 | 44.87569 | 12.21153 | 38395 ft | 490 kts | 194° |
| 2026-05-01 12:17 | 44.80963 | 12.18804 | 38390 ft | 489 kts | 194° |
| 2026-05-01 12:18 | 44.74365 | 12.16414 | 38390 ft | 489 kts | 195° |
| 2026-05-01 12:18 | 44.67769 | 12.14039 | 38393 ft | 489 kts | 194° |
| 2026-05-01 12:19 | 44.61165 | 12.11687 | 38393 ft | 489 kts | 194° |
| 2026-05-01 12:19 | 44.54560 | 12.09350 | 38389 ft | 489 kts | 194° |
| 2026-05-01 12:20 | 44.47956 | 12.07027 | 38386 ft | 489 kts | 194° |
| 2026-05-01 12:20 | 44.41349 | 12.04699 | 38385 ft | 489 kts | 195° |
| 2026-05-01 12:21 | 44.34747 | 12.02376 | 38385 ft | 489 kts | 195° |
| 2026-05-01 12:21 | 44.28145 | 12.00061 | 38392 ft | 489 kts | 195° |
| 2026-05-01 12:22 | 44.22657 | 11.98130 | 38387 ft | 489 kts | 195° |
| 2026-05-01 12:22 | 44.14980 | 11.95446 | 38391 ft | 489 kts | 195° |
| 2026-05-01 12:23 | 44.08369 | 11.93147 | 38384 ft | 490 kts | 195° |
| 2026-05-01 12:23 | 44.01749 | 11.90839 | 38367 ft | 491 kts | 195° |
| 2026-05-01 12:24 | 43.95113 | 11.88531 | 38357 ft | 492 kts | 195° |
| 2026-05-01 12:24 | 43.88461 | 11.86215 | 38337 ft | 493 kts | 195° |
| 2026-05-01 12:25 | 43.79457 | 11.83382 | 37772 ft | 499 kts | 185° |
| 2026-05-01 12:25 | 43.75983 | 11.83321 | 37503 ft | 500 kts | 174° |
| 2026-05-01 12:26 | 43.72551 | 11.84088 | 37235 ft | 500 kts | 164° |
| 2026-05-01 12:26 | 43.65800 | 11.86255 | 36737 ft | 502 kts | 164° |
| 2026-05-01 12:26 | 43.62387 | 11.87340 | 36476 ft | 503 kts | 164° |
| 2026-05-01 12:27 | 43.58970 | 11.88424 | 36066 ft | 505 kts | 163° |
| 2026-05-01 12:27 | 43.52121 | 11.90597 | 34986 ft | 506 kts | 162° |
| 2026-05-01 12:28 | 43.45252 | 11.92782 | 33889 ft | 507 kts | 162° |
| 2026-05-01 12:28 | 43.41807 | 11.93876 | 33300 ft | 507 kts | 162° |
| 2026-05-01 12:28 | 43.34928 | 11.96054 | 32139 ft | 507 kts | 162° |
| 2026-05-01 12:29 | 43.31490 | 11.97136 | 31584 ft | 507 kts | 162° |
| 2026-05-01 12:29 | 43.28051 | 11.98215 | 31038 ft | 507 kts | 161° |
| 2026-05-01 12:29 | 43.21160 | 12.00377 | 29862 ft | 508 kts | 161° |
| 2026-05-01 12:30 | 43.14254 | 12.02557 | 28487 ft | 510 kts | 161° |
| 2026-05-01 12:30 | 43.10788 | 12.03647 | 27819 ft | 511 kts | 161° |
| 2026-05-01 12:30 | 43.07320 | 12.04733 | 27173 ft | 511 kts | 161° |
| 2026-05-01 12:31 | 43.03879 | 12.05802 | 26418 ft | 504 kts | 161° |
| 2026-05-01 12:31 | 43.00477 | 12.06854 | 25666 ft | 498 kts | 161° |
| 2026-05-01 12:31 | 42.97156 | 12.07880 | 24942 ft | 493 kts | 161° |
| 2026-05-01 12:31 | 42.93833 | 12.08912 | 24210 ft | 485 kts | 161° |
| 2026-05-01 12:32 | 42.90555 | 12.09929 | 23318 ft | 482 kts | 161° |
| 2026-05-01 12:32 | 42.84076 | 12.11938 | 21978 ft | 474 kts | 161° |
| 2026-05-01 12:32 | 42.80873 | 12.12938 | 21446 ft | 471 kts | 162° |
| 2026-05-01 12:33 | 42.77688 | 12.13932 | 20929 ft | 467 kts | 162° |
| 2026-05-01 12:33 | 42.74536 | 12.14911 | 20427 ft | 463 kts | 162° |
| 2026-05-01 12:33 | 42.71417 | 12.15906 | 20001 ft | 457 kts | 160° |
| 2026-05-01 12:33 | 42.68506 | 12.17472 | 19638 ft | 445 kts | 146° |
| 2026-05-01 12:34 | 42.65849 | 12.19571 | 19276 ft | 440 kts | 144° |
| 2026-05-01 12:34 | 42.63173 | 12.21582 | 18916 ft | 441 kts | 152° |
| 2026-05-01 12:34 | 42.60214 | 12.22744 | 18561 ft | 446 kts | 167° |
| 2026-05-01 12:34 | 42.57145 | 12.23359 | 18156 ft | 444 kts | 168° |
| 2026-05-01 12:35 | 42.54095 | 12.23938 | 17736 ft | 441 kts | 169° |
| 2026-05-01 12:35 | 42.51065 | 12.24499 | 17198 ft | 437 kts | 169° |
| 2026-05-01 12:35 | 42.48063 | 12.25051 | 16676 ft | 434 kts | 169° |
| 2026-05-01 12:35 | 42.45086 | 12.25602 | 16162 ft | 430 kts | 169° |
| 2026-05-01 12:36 | 42.42134 | 12.26157 | 15653 ft | 426 kts | 169° |
| 2026-05-01 12:36 | 42.39208 | 12.26710 | 15156 ft | 422 kts | 169° |
| 2026-05-01 12:36 | 42.36320 | 12.27257 | 14663 ft | 417 kts | 169° |
| 2026-05-01 12:36 | 42.33475 | 12.27792 | 14173 ft | 408 kts | 170° |
| 2026-05-01 12:37 | 42.30703 | 12.28313 | 13652 ft | 396 kts | 170° |
| 2026-05-01 12:37 | 42.28004 | 12.28821 | 13114 ft | 385 kts | 169° |
| 2026-05-01 12:37 | 42.25422 | 12.29305 | 12600 ft | 375 kts | 169° |
| 2026-05-01 12:37 | 42.22870 | 12.29782 | 12085 ft | 366 kts | 169° |
| 2026-05-01 12:38 | 42.20355 | 12.30254 | 11627 ft | 362 kts | 169° |
| 2026-05-01 12:38 | 42.17887 | 12.30716 | 11303 ft | 355 kts | 169° |
| 2026-05-01 12:38 | 42.15466 | 12.31168 | 10966 ft | 346 kts | 169° |
| 2026-05-01 12:38 | 42.13111 | 12.31607 | 10729 ft | 337 kts | 169° |
| 2026-05-01 12:39 | 42.10812 | 12.32034 | 10476 ft | 329 kts | 169° |
| 2026-05-01 12:39 | 42.08616 | 12.32442 | 10247 ft | 322 kts | 169° |
| 2026-05-01 12:39 | 42.06422 | 12.32850 | 9991 ft | 315 kts | 169° |
| 2026-05-01 12:39 | 42.04275 | 12.33248 | 9727 ft | 308 kts | 169° |
| 2026-05-01 12:40 | 42.02175 | 12.33639 | 9461 ft | 302 kts | 169° |
| 2026-05-01 12:40 | 42.00117 | 12.34027 | 9196 ft | 296 kts | 169° |
| 2026-05-01 12:40 | 41.98129 | 12.34510 | 8931 ft | 284 kts | 161° |
| 2026-05-01 12:40 | 41.96288 | 12.35284 | 8730 ft | 272 kts | 159° |
| 2026-05-01 12:41 | 41.94495 | 12.36037 | 8406 ft | 269 kts | 159° |
| 2026-05-01 12:41 | 41.92720 | 12.36776 | 8096 ft | 266 kts | 160° |
| 2026-05-01 12:41 | 41.90956 | 12.37506 | 7785 ft | 264 kts | 160° |
| 2026-05-01 12:41 | 41.89207 | 12.38230 | 7460 ft | 262 kts | 160° |
| 2026-05-01 12:42 | 41.87471 | 12.38948 | 7140 ft | 260 kts | 160° |
| 2026-05-01 12:42 | 41.85742 | 12.39665 | 6813 ft | 259 kts | 160° |
| 2026-05-01 12:42 | 41.84027 | 12.40375 | 6489 ft | 257 kts | 160° |
| 2026-05-01 12:42 | 41.82322 | 12.41083 | 6133 ft | 256 kts | 160° |
| 2026-05-01 12:43 | 41.80627 | 12.41791 | 5777 ft | 255 kts | 160° |
| 2026-05-01 12:43 | 41.78935 | 12.42500 | 5417 ft | 254 kts | 160° |
| 2026-05-01 12:43 | 41.77253 | 12.43201 | 5082 ft | 253 kts | 160° |
| 2026-05-01 12:43 | 41.75574 | 12.43902 | 4858 ft | 252 kts | 161° |
| 2026-05-01 12:44 | 41.73903 | 12.44601 | 4585 ft | 251 kts | 161° |
| 2026-05-01 12:44 | 41.72240 | 12.45295 | 4323 ft | 250 kts | 161° |
| 2026-05-01 12:44 | 41.68958 | 12.44728 | 3825 ft | 247 kts | 219° |
| 2026-05-01 12:45 | 41.67391 | 12.40861 | 3332 ft | 235 kts | 253° |
| 2026-05-01 12:45 | 41.66896 | 12.38793 | 3028 ft | 232 kts | 254° |
| 2026-05-01 12:45 | 41.66407 | 12.36736 | 2803 ft | 228 kts | 254° |
| 2026-05-01 12:46 | 41.66007 | 12.34706 | 2802 ft | 225 kts | 268° |
| 2026-05-01 12:46 | 41.66335 | 12.32726 | 2790 ft | 219 kts | 302° |
| 2026-05-01 12:46 | 41.67411 | 12.31376 | 2632 ft | 211 kts | 338° |
| 2026-05-01 12:46 | 41.68805 | 12.31193 | 2466 ft | 202 kts | 14° |
| 2026-05-01 12:47 | 41.70166 | 12.31615 | 2237 ft | 200 kts | 5° |
| 2026-05-01 12:47 | 41.71552 | 12.31469 | 2017 ft | 202 kts | 349° |
| 2026-05-01 12:47 | 41.72928 | 12.31004 | 1747 ft | 202 kts | 345° |
| 2026-05-01 12:47 | 41.74250 | 12.30471 | 1460 ft | 196 kts | 345° |
| 2026-05-01 12:48 | 41.75515 | 12.29945 | 1201 ft | 183 kts | 345° |
| 2026-05-01 12:48 | 41.76662 | 12.29466 | 992 ft | 166 kts | 345° |
| 2026-05-01 12:48 | 41.77695 | 12.29034 | 780 ft | 146 kts | 345° |
| 2026-05-01 12:48 | 41.78611 | 12.28651 | 589 ft | 132 kts | 345° |
| 2026-05-01 12:49 | 41.79464 | 12.28295 | 418 ft | 127 kts | 345° |
| 2026-05-01 12:49 | 41.80282 | 12.27947 | 226 ft | 125 kts | 346° |
| 2026-05-01 12:49 | 41.81113 | 12.27602 | 107 ft | 123 kts | 346° |
| 2026-05-01 12:49 | 41.81901 | 12.27272 | 14 ft | 109 kts | 343° |
| 2026-05-01 12:50 | 41.82382 | 12.27078 | 11 ft | 34 kts | 339° |
| 2026-05-01 12:50 | 41.82580 | 12.26932 | 11 ft | 32 kts | 322° |
| 2026-05-01 12:50 | 41.82684 | 12.26788 | 10 ft | 12 kts | 312° |
| 2026-05-01 12:50 | 41.82723 | 12.26729 | 11 ft | 8 kts | 310° |
| 2026-05-01 12:51 | 41.82739 | 12.26659 | 11 ft | 8 kts | 253° |
| 2026-05-01 12:51 | 41.82693 | 12.26627 | 11 ft | 8 kts | 188° |
| 2026-05-01 12:51 | 41.82569 | 12.26679 | 11 ft | 13 kts | 160° |
| 2026-05-01 12:52 | 41.82472 | 12.26719 | 13 ft | 15 kts | 163° |
| 2026-05-01 12:52 | 41.82261 | 12.26807 | 11 ft | 17 kts | 162° |
| 2026-05-01 12:52 | 41.82148 | 12.26852 | 11 ft | 17 kts | 163° |
| 2026-05-01 12:53 | 41.81911 | 12.26949 | 11 ft | 18 kts | 163° |
| 2026-05-01 12:53 | 41.81788 | 12.26999 | 13 ft | 19 kts | 162° |
| 2026-05-01 12:53 | 41.81663 | 12.27055 | 12 ft | 19 kts | 162° |
| 2026-05-01 12:54 | 41.81534 | 12.27109 | 12 ft | 20 kts | 163° |
| 2026-05-01 12:54 | 41.81265 | 12.27221 | 12 ft | 21 kts | 162° |
| 2026-05-01 12:54 | 41.81125 | 12.27279 | 12 ft | 21 kts | 162° |
| 2026-05-01 12:55 | 41.80833 | 12.27333 | 13 ft | 22 kts | 190° |
| 2026-05-01 12:55 | 41.80688 | 12.27278 | 15 ft | 22 kts | 219° |
| 2026-05-01 12:55 | 41.80620 | 12.27093 | 13 ft | 22 kts | 250° |
| 2026-05-01 12:56 | 41.80567 | 12.26894 | 14 ft | 23 kts | 250° |
| 2026-05-01 12:56 | 41.80511 | 12.26695 | 16 ft | 23 kts | 249° |
| 2026-05-01 12:56 | 41.80457 | 12.26497 | 15 ft | 23 kts | 250° |
| 2026-05-01 12:56 | 41.80387 | 12.26363 | 15 ft | 18 kts | 193° |
| 2026-05-01 12:57 | 41.80265 | 12.26410 | 14 ft | 19 kts | 167° |
| 2026-05-01 12:57 | 41.80019 | 12.26284 | 14 ft | 20 kts | 205° |
| 2026-05-01 12:57 | 41.79894 | 12.26204 | 14 ft | 20 kts | 203° |
| 2026-05-01 12:58 | 41.79770 | 12.26126 | 15 ft | 16 kts | 212° |
| 2026-05-01 12:58 | 41.79674 | 12.26056 | 15 ft | 12 kts | 205° |
| 2026-05-01 12:58 | 41.79653 | 12.25996 | 14 ft | 8 kts | 294° |
| 2026-05-01 12:59 | 41.79665 | 12.25963 | 14 ft | 0 kts | 294° |
| 2026-05-01 12:59 | 41.79665 | 12.25962 | 14 ft | 0 kts | 294° |